sensor_id;sensor_type;location;lat;lon;timestamp;P1;durP1;ratioP1;P2;durP2;ratioP2
18188;SDS011;9219;50.396;8.546;2023-04-03T00:03:59;1.90;;;1.10;;
18188;SDS011;9219;50.396;8.546;2023-04-03T00:06:26;2.40;;;0.80;;
18188;SDS011;9219;50.396;8.546;2023-04-03T00:08:53;1.10;;;1.00;;
18188;SDS011;9219;50.396;8.546;2023-04-03T00:11:21;2.87;;;1.10;;
18188;SDS011;9219;50.396;8.546;2023-04-03T00:13:48;3.30;;;1.33;;
18188;SDS011;9219;50.396;8.546;2023-04-03T00:16:15;4.03;;;1.00;;
18188;SDS011;9219;50.396;8.546;2023-04-03T00:18:43;2.37;;;1.57;;
18188;SDS011;9219;50.396;8.546;2023-04-03T00:24:10;2.87;;;1.17;;
18188;SDS011;9219;50.396;8.546;2023-04-03T00:26:38;2.47;;;1.17;;
18188;SDS011;9219;50.396;8.546;2023-04-03T00:29:05;3.97;;;1.47;;
18188;SDS011;9219;50.396;8.546;2023-04-03T00:31:33;3.43;;;1.00;;
18188;SDS011;9219;50.396;8.546;2023-04-03T00:34:00;2.13;;;0.90;;
18188;SDS011;9219;50.396;8.546;2023-04-03T00:36:28;1.57;;;1.07;;
18188;SDS011;9219;50.396;8.546;2023-04-03T00:38:56;2.77;;;1.00;;
18188;SDS011;9219;50.396;8.546;2023-04-03T00:46:48;3.27;;;1.10;;
18188;SDS011;9219;50.396;8.546;2023-04-03T00:49:16;1.80;;;0.80;;
18188;SDS011;9219;50.396;8.546;2023-04-03T00:51:43;2.07;;;1.00;;
18188;SDS011;9219;50.396;8.546;2023-04-03T00:54:11;2.67;;;0.90;;
18188;SDS011;9219;50.396;8.546;2023-04-03T00:56:41;2.47;;;1.13;;
18188;SDS011;9219;50.396;8.546;2023-04-03T00:59:10;2.33;;;0.90;;
18188;SDS011;9219;50.396;8.546;2023-04-03T01:04:36;3.60;;;1.33;;
18188;SDS011;9219;50.396;8.546;2023-04-03T01:07:05;2.87;;;1.07;;
18188;SDS011;9219;50.396;8.546;2023-04-03T01:09:34;1.77;;;0.97;;
18188;SDS011;9219;50.396;8.546;2023-04-03T01:12:13;2.27;;;0.80;;
18188;SDS011;9219;50.396;8.546;2023-04-03T01:14:42;4.60;;;1.10;;
18188;SDS011;9219;50.396;8.546;2023-04-03T01:17:26;1.60;;;1.10;;
18188;SDS011;9219;50.396;8.546;2023-04-03T01:20:02;6.83;;;1.10;;
18188;SDS011;9219;50.396;8.546;2023-04-03T01:28:36;4.57;;;1.63;;
18188;SDS011;9219;50.396;8.546;2023-04-03T01:31:07;4.37;;;1.27;;
18188;SDS011;9219;50.396;8.546;2023-04-03T01:33:41;3.70;;;1.10;;
18188;SDS011;9219;50.396;8.546;2023-04-03T01:36:09;2.97;;;1.10;;
18188;SDS011;9219;50.396;8.546;2023-04-03T01:38:40;3.63;;;0.97;;
18188;SDS011;9219;50.396;8.546;2023-04-03T01:41:07;2.83;;;1.10;;
18188;SDS011;9219;50.396;8.546;2023-04-03T01:43:35;1.43;;;0.90;;
18188;SDS011;9219;50.396;8.546;2023-04-03T01:48:58;6.87;;;0.97;;
18188;SDS011;9219;50.396;8.546;2023-04-03T01:51:25;2.93;;;1.00;;
18188;SDS011;9219;50.396;8.546;2023-04-03T01:53:52;1.77;;;0.70;;
18188;SDS011;9219;50.396;8.546;2023-04-03T01:56:19;3.83;;;1.87;;
18188;SDS011;9219;50.396;8.546;2023-04-03T01:58:47;3.83;;;1.40;;
18188;SDS011;9219;50.396;8.546;2023-04-03T02:01:14;2.00;;;1.07;;
18188;SDS011;9219;50.396;8.546;2023-04-03T02:03:42;2.47;;;0.80;;
18188;SDS011;9219;50.396;8.546;2023-04-03T02:09:03;3.30;;;0.80;;
18188;SDS011;9219;50.396;8.546;2023-04-03T02:11:31;1.73;;;1.17;;
18188;SDS011;9219;50.396;8.546;2023-04-03T02:13:58;1.67;;;1.23;;
18188;SDS011;9219;50.396;8.546;2023-04-03T02:16:25;6.33;;;0.97;;
18188;SDS011;9219;50.396;8.546;2023-04-03T02:18:52;6.57;;;1.43;;
18188;SDS011;9219;50.396;8.546;2023-04-03T02:21:20;3.20;;;1.07;;
18188;SDS011;9219;50.396;8.546;2023-04-03T02:23:47;2.37;;;1.07;;
18188;SDS011;9219;50.396;8.546;2023-04-03T02:29:00;1.20;;;0.80;;
18188;SDS011;9219;50.396;8.546;2023-04-03T02:31:28;3.27;;;1.30;;
18188;SDS011;9219;50.396;8.546;2023-04-03T02:33:56;1.30;;;0.90;;
18188;SDS011;9219;50.396;8.546;2023-04-03T02:36:23;2.73;;;1.30;;
18188;SDS011;9219;50.396;8.546;2023-04-03T02:38:50;5.10;;;1.00;;
18188;SDS011;9219;50.396;8.546;2023-04-03T02:41:17;3.90;;;0.80;;
18188;SDS011;9219;50.396;8.546;2023-04-03T02:43:45;1.27;;;0.80;;
18188;SDS011;9219;50.396;8.546;2023-04-03T02:49:07;3.50;;;1.00;;
18188;SDS011;9219;50.396;8.546;2023-04-03T02:51:34;3.27;;;1.00;;
18188;SDS011;9219;50.396;8.546;2023-04-03T02:54:02;4.03;;;1.27;;
18188;SDS011;9219;50.396;8.546;2023-04-03T02:56:29;5.17;;;1.10;;
18188;SDS011;9219;50.396;8.546;2023-04-03T02:58:56;5.00;;;1.40;;
18188;SDS011;9219;50.396;8.546;2023-04-03T03:01:24;3.47;;;2.27;;
18188;SDS011;9219;50.396;8.546;2023-04-03T03:03:51;4.30;;;1.20;;
18188;SDS011;9219;50.396;8.546;2023-04-03T03:09:05;4.53;;;1.40;;
18188;SDS011;9219;50.396;8.546;2023-04-03T03:11:32;4.93;;;1.37;;
18188;SDS011;9219;50.396;8.546;2023-04-03T03:14:00;2.07;;;1.03;;
18188;SDS011;9219;50.396;8.546;2023-04-03T03:16:27;6.50;;;1.40;;
18188;SDS011;9219;50.396;8.546;2023-04-03T03:18:55;4.87;;;1.23;;
18188;SDS011;9219;50.396;8.546;2023-04-03T03:21:23;2.80;;;1.30;;
18188;SDS011;9219;50.396;8.546;2023-04-03T03:23:53;5.27;;;1.67;;
18188;SDS011;9219;50.396;8.546;2023-04-03T03:26:21;3.17;;;1.17;;
18188;SDS011;9219;50.396;8.546;2023-04-03T03:34:06;6.17;;;1.50;;
18188;SDS011;9219;50.396;8.546;2023-04-03T03:36:34;3.77;;;1.40;;
18188;SDS011;9219;50.396;8.546;2023-04-03T03:39:02;5.30;;;1.60;;
18188;SDS011;9219;50.396;8.546;2023-04-03T03:41:29;3.60;;;1.40;;
18188;SDS011;9219;50.396;8.546;2023-04-03T03:43:56;2.23;;;1.10;;
18188;SDS011;9219;50.396;8.546;2023-04-03T03:46:24;5.47;;;1.40;;
18188;SDS011;9219;50.396;8.546;2023-04-03T03:48:51;10.27;;;1.37;;
18188;SDS011;9219;50.396;8.546;2023-04-03T03:57:09;4.77;;;1.60;;
18188;SDS011;9219;50.396;8.546;2023-04-03T03:59:37;3.33;;;1.73;;
18188;SDS011;9219;50.396;8.546;2023-04-03T04:02:05;1.90;;;1.20;;
18188;SDS011;9219;50.396;8.546;2023-04-03T04:04:36;9.60;;;1.20;;
18188;SDS011;9219;50.396;8.546;2023-04-03T04:07:03;2.73;;;1.37;;
18188;SDS011;9219;50.396;8.546;2023-04-03T04:09:31;4.90;;;1.33;;
18188;SDS011;9219;50.396;8.546;2023-04-03T04:11:58;2.17;;;1.30;;
18188;SDS011;9219;50.396;8.546;2023-04-03T04:17:24;3.80;;;1.40;;
18188;SDS011;9219;50.396;8.546;2023-04-03T04:19:52;2.77;;;1.17;;
18188;SDS011;9219;50.396;8.546;2023-04-03T04:22:19;4.77;;;1.43;;
18188;SDS011;9219;50.396;8.546;2023-04-03T04:24:46;3.13;;;1.23;;
18188;SDS011;9219;50.396;8.546;2023-04-03T04:27:13;2.90;;;1.37;;
18188;SDS011;9219;50.396;8.546;2023-04-03T04:29:41;4.37;;;1.40;;
18188;SDS011;9219;50.396;8.546;2023-04-03T04:32:08;6.97;;;1.50;;
18188;SDS011;9219;50.396;8.546;2023-04-03T04:39:41;4.23;;;1.23;;
18188;SDS011;9219;50.396;8.546;2023-04-03T04:42:08;3.63;;;1.27;;
18188;SDS011;9219;50.396;8.546;2023-04-03T04:44:38;10.83;;;1.83;;
18188;SDS011;9219;50.396;8.546;2023-04-03T04:47:05;2.30;;;1.10;;
18188;SDS011;9219;50.396;8.546;2023-04-03T04:49:33;2.27;;;1.10;;
18188;SDS011;9219;50.396;8.546;2023-04-03T04:52:01;2.63;;;1.27;;
18188;SDS011;9219;50.396;8.546;2023-04-03T04:54:28;4.67;;;1.60;;
18188;SDS011;9219;50.396;8.546;2023-04-03T05:01:59;3.27;;;1.83;;
18188;SDS011;9219;50.396;8.546;2023-04-03T05:04:27;5.77;;;1.23;;
18188;SDS011;9219;50.396;8.546;2023-04-03T05:06:54;6.67;;;1.27;;
18188;SDS011;9219;50.396;8.546;2023-04-03T05:09:21;5.67;;;1.50;;
18188;SDS011;9219;50.396;8.546;2023-04-03T05:11:48;8.17;;;1.70;;
18188;SDS011;9219;50.396;8.546;2023-04-03T05:14:16;6.47;;;1.53;;
18188;SDS011;9219;50.396;8.546;2023-04-03T05:16:46;4.70;;;1.87;;
18188;SDS011;9219;50.396;8.546;2023-04-03T05:26:27;4.60;;;1.97;;
18188;SDS011;9219;50.396;8.546;2023-04-03T05:28:54;4.60;;;1.63;;
18188;SDS011;9219;50.396;8.546;2023-04-03T05:31:21;4.67;;;1.40;;
18188;SDS011;9219;50.396;8.546;2023-04-03T05:33:48;2.63;;;1.53;;
18188;SDS011;9219;50.396;8.546;2023-04-03T05:36:16;4.80;;;2.10;;
18188;SDS011;9219;50.396;8.546;2023-04-03T05:38:44;3.87;;;2.07;;
18188;SDS011;9219;50.396;8.546;2023-04-03T05:41:11;3.87;;;1.77;;
18188;SDS011;9219;50.396;8.546;2023-04-03T05:46:19;5.37;;;1.53;;
18188;SDS011;9219;50.396;8.546;2023-04-03T05:48:47;6.70;;;1.90;;
18188;SDS011;9219;50.396;8.546;2023-04-03T05:51:15;8.43;;;2.67;;
18188;SDS011;9219;50.396;8.546;2023-04-03T05:53:44;7.73;;;1.93;;
18188;SDS011;9219;50.396;8.546;2023-04-03T05:56:12;3.40;;;1.43;;
18188;SDS011;9219;50.396;8.546;2023-04-03T05:58:39;8.67;;;2.13;;
18188;SDS011;9219;50.396;8.546;2023-04-03T06:01:06;10.20;;;1.83;;
18188;SDS011;9219;50.396;8.546;2023-04-03T06:06:15;7.03;;;2.03;;
18188;SDS011;9219;50.396;8.546;2023-04-03T06:08:42;8.57;;;2.10;;
18188;SDS011;9219;50.396;8.546;2023-04-03T06:11:10;6.30;;;1.60;;
18188;SDS011;9219;50.396;8.546;2023-04-03T06:13:38;3.43;;;1.43;;
18188;SDS011;9219;50.396;8.546;2023-04-03T06:16:05;3.83;;;2.63;;
18188;SDS011;9219;50.396;8.546;2023-04-03T06:18:33;2.10;;;1.30;;
18188;SDS011;9219;50.396;8.546;2023-04-03T06:21:00;4.97;;;1.80;;
18188;SDS011;9219;50.396;8.546;2023-04-03T06:29:23;5.83;;;1.60;;
18188;SDS011;9219;50.396;8.546;2023-04-03T06:31:51;4.60;;;1.33;;
18188;SDS011;9219;50.396;8.546;2023-04-03T06:34:18;3.50;;;1.97;;
18188;SDS011;9219;50.396;8.546;2023-04-03T06:36:46;4.63;;;2.00;;
18188;SDS011;9219;50.396;8.546;2023-04-03T06:39:15;5.90;;;2.27;;
18188;SDS011;9219;50.396;8.546;2023-04-03T06:41:46;2.20;;;1.50;;
18188;SDS011;9219;50.396;8.546;2023-04-03T06:49:19;10.20;;;3.27;;
18188;SDS011;9219;50.396;8.546;2023-04-03T06:51:47;3.97;;;1.77;;
18188;SDS011;9219;50.396;8.546;2023-04-03T06:54:14;4.57;;;2.37;;
18188;SDS011;9219;50.396;8.546;2023-04-03T06:56:41;8.17;;;2.07;;
18188;SDS011;9219;50.396;8.546;2023-04-03T06:59:09;5.63;;;1.70;;
18188;SDS011;9219;50.396;8.546;2023-04-03T07:01:36;9.43;;;2.87;;
18188;SDS011;9219;50.396;8.546;2023-04-03T07:04:04;6.53;;;2.43;;
18188;SDS011;9219;50.396;8.546;2023-04-03T07:11:37;7.40;;;2.67;;
18188;SDS011;9219;50.396;8.546;2023-04-03T07:14:05;3.83;;;2.40;;
18188;SDS011;9219;50.396;8.546;2023-04-03T07:16:33;6.10;;;3.63;;
18188;SDS011;9219;50.396;8.546;2023-04-03T07:19:01;3.53;;;3.10;;
18188;SDS011;9219;50.396;8.546;2023-04-03T07:21:29;10.47;;;2.70;;
18188;SDS011;9219;50.396;8.546;2023-04-03T07:23:57;6.17;;;2.80;;
18188;SDS011;9219;50.396;8.546;2023-04-03T07:26:23;8.40;;;3.67;;
18188;SDS011;9219;50.396;8.546;2023-04-03T07:36:52;4.77;;;2.73;;
18188;SDS011;9219;50.396;8.546;2023-04-03T07:39:19;3.00;;;2.40;;
18188;SDS011;9219;50.396;8.546;2023-04-03T07:41:47;5.03;;;2.70;;
18188;SDS011;9219;50.396;8.546;2023-04-03T07:44:14;6.23;;;2.40;;
18188;SDS011;9219;50.396;8.546;2023-04-03T07:46:41;7.50;;;3.17;;
18188;SDS011;9219;50.396;8.546;2023-04-03T07:49:09;8.83;;;2.97;;
18188;SDS011;9219;50.396;8.546;2023-04-03T07:56:41;6.83;;;2.70;;
18188;SDS011;9219;50.396;8.546;2023-04-03T07:59:09;6.23;;;3.03;;
18188;SDS011;9219;50.396;8.546;2023-04-03T08:01:37;4.93;;;2.63;;
18188;SDS011;9219;50.396;8.546;2023-04-03T08:04:05;5.60;;;2.33;;
18188;SDS011;9219;50.396;8.546;2023-04-03T08:06:33;8.77;;;2.67;;
18188;SDS011;9219;50.396;8.546;2023-04-03T08:09:11;6.13;;;2.67;;
18188;SDS011;9219;50.396;8.546;2023-04-03T08:11:41;7.80;;;2.50;;
18188;SDS011;9219;50.396;8.546;2023-04-03T08:19:13;7.90;;;2.27;;
18188;SDS011;9219;50.396;8.546;2023-04-03T08:21:52;4.57;;;2.00;;
18188;SDS011;9219;50.396;8.546;2023-04-03T08:24:19;5.20;;;2.23;;
18188;SDS011;9219;50.396;8.546;2023-04-03T08:26:47;6.03;;;1.77;;
18188;SDS011;9219;50.396;8.546;2023-04-03T08:29:15;12.13;;;2.00;;
18188;SDS011;9219;50.396;8.546;2023-04-03T08:31:42;2.73;;;1.63;;
18188;SDS011;9219;50.396;8.546;2023-04-03T08:34:10;11.20;;;2.73;;
18188;SDS011;9219;50.396;8.546;2023-04-03T08:41:44;7.37;;;1.97;;
18188;SDS011;9219;50.396;8.546;2023-04-03T08:44:15;2.90;;;1.60;;
18188;SDS011;9219;50.396;8.546;2023-04-03T08:46:56;4.73;;;1.77;;
18188;SDS011;9219;50.396;8.546;2023-04-03T08:49:31;4.73;;;1.93;;
18188;SDS011;9219;50.396;8.546;2023-04-03T08:52:03;4.73;;;2.10;;
18188;SDS011;9219;50.396;8.546;2023-04-03T08:54:37;5.23;;;2.23;;
18188;SDS011;9219;50.396;8.546;2023-04-03T08:57:16;7.47;;;2.07;;
18188;SDS011;9219;50.396;8.546;2023-04-03T09:06:44;9.03;;;2.13;;
18188;SDS011;9219;50.396;8.546;2023-04-03T09:09:20;4.17;;;2.13;;
18188;SDS011;9219;50.396;8.546;2023-04-03T09:12:00;6.40;;;1.73;;
18188;SDS011;9219;50.396;8.546;2023-04-03T09:14:41;3.77;;;1.90;;
18188;SDS011;9219;50.396;8.546;2023-04-03T09:17:20;4.03;;;2.17;;
18188;SDS011;9219;50.396;8.546;2023-04-03T09:19:54;4.33;;;2.43;;
18188;SDS011;9219;50.396;8.546;2023-04-03T09:22:27;2.80;;;1.90;;
18188;SDS011;9219;50.396;8.546;2023-04-03T09:29:25;2.10;;;1.27;;
18188;SDS011;9219;50.396;8.546;2023-04-03T09:31:56;3.10;;;1.77;;
18188;SDS011;9219;50.396;8.546;2023-04-03T09:34:27;4.57;;;1.73;;
18188;SDS011;9219;50.396;8.546;2023-04-03T09:36:56;4.73;;;1.63;;
18188;SDS011;9219;50.396;8.546;2023-04-03T09:39:32;5.27;;;1.63;;
18188;SDS011;9219;50.396;8.546;2023-04-03T09:42:18;3.30;;;1.57;;
18188;SDS011;9219;50.396;8.546;2023-04-03T09:44:52;3.50;;;1.50;;
18188;SDS011;9219;50.396;8.546;2023-04-03T09:52:27;3.67;;;1.67;;
18188;SDS011;9219;50.396;8.546;2023-04-03T09:54:58;5.53;;;2.03;;
18188;SDS011;9219;50.396;8.546;2023-04-03T09:57:34;5.13;;;1.57;;
18188;SDS011;9219;50.396;8.546;2023-04-03T10:00:01;6.00;;;2.13;;
18188;SDS011;9219;50.396;8.546;2023-04-03T10:02:32;3.23;;;1.53;;
18188;SDS011;9219;50.396;8.546;2023-04-03T10:05:03;2.13;;;1.60;;
18188;SDS011;9219;50.396;8.546;2023-04-03T10:07:51;3.43;;;1.80;;
18188;SDS011;9219;50.396;8.546;2023-04-03T10:13:12;1.67;;;1.20;;
18188;SDS011;9219;50.396;8.546;2023-04-03T10:15:48;2.47;;;1.67;;
18188;SDS011;9219;50.396;8.546;2023-04-03T10:18:29;2.40;;;1.80;;
18188;SDS011;9219;50.396;8.546;2023-04-03T10:21:04;2.63;;;1.17;;
18188;SDS011;9219;50.396;8.546;2023-04-03T10:23:51;2.93;;;1.60;;
18188;SDS011;9219;50.396;8.546;2023-04-03T10:26:29;3.90;;;1.43;;
18188;SDS011;9219;50.396;8.546;2023-04-03T10:35:28;5.90;;;1.30;;
18188;SDS011;9219;50.396;8.546;2023-04-03T10:38:04;5.13;;;1.93;;
18188;SDS011;9219;50.396;8.546;2023-04-03T10:40:41;4.13;;;2.00;;
18188;SDS011;9219;50.396;8.546;2023-04-03T10:43:16;1.87;;;1.50;;
18188;SDS011;9219;50.396;8.546;2023-04-03T10:45:51;2.93;;;2.03;;
18188;SDS011;9219;50.396;8.546;2023-04-03T10:48:27;5.73;;;2.00;;
18188;SDS011;9219;50.396;8.546;2023-04-03T10:56:11;3.40;;;1.90;;
18188;SDS011;9219;50.396;8.546;2023-04-03T10:58:45;5.20;;;1.90;;
18188;SDS011;9219;50.396;8.546;2023-04-03T11:01:16;6.47;;;1.97;;
18188;SDS011;9219;50.396;8.546;2023-04-03T11:03:47;2.93;;;1.90;;
18188;SDS011;9219;50.396;8.546;2023-04-03T11:06:19;4.33;;;1.80;;
18188;SDS011;9219;50.396;8.546;2023-04-03T11:08:51;2.77;;;1.83;;
18188;SDS011;9219;50.396;8.546;2023-04-03T11:11:25;5.73;;;1.67;;
18188;SDS011;9219;50.396;8.546;2023-04-03T11:19:03;6.60;;;1.80;;
18188;SDS011;9219;50.396;8.546;2023-04-03T11:21:48;5.17;;;2.13;;
18188;SDS011;9219;50.396;8.546;2023-04-03T11:24:23;5.40;;;1.57;;
18188;SDS011;9219;50.396;8.546;2023-04-03T11:26:53;5.00;;;1.60;;
18188;SDS011;9219;50.396;8.546;2023-04-03T11:29:24;2.97;;;1.50;;
18188;SDS011;9219;50.396;8.546;2023-04-03T11:32:09;1.83;;;1.40;;
18188;SDS011;9219;50.396;8.546;2023-04-03T11:34:53;2.87;;;1.93;;
18188;SDS011;9219;50.396;8.546;2023-04-03T11:42:15;2.30;;;1.57;;
18188;SDS011;9219;50.396;8.546;2023-04-03T11:47:44;1.90;;;1.57;;
18188;SDS011;9219;50.396;8.546;2023-04-03T11:55:55;1.90;;;1.20;;
18188;SDS011;9219;50.396;8.546;2023-04-03T12:01:10;3.37;;;1.27;;
18188;SDS011;9219;50.396;8.546;2023-04-03T12:04:07;3.30;;;1.83;;
18188;SDS011;9219;50.396;8.546;2023-04-03T12:12:29;1.77;;;1.40;;
18188;SDS011;9219;50.396;8.546;2023-04-03T12:25:48;1.27;;;1.10;;
18188;SDS011;9219;50.396;8.546;2023-04-03T12:28:25;2.80;;;1.10;;
18188;SDS011;9219;50.396;8.546;2023-04-03T12:30:54;1.67;;;1.20;;
18188;SDS011;9219;50.396;8.546;2023-04-03T12:33:24;5.90;;;1.57;;
18188;SDS011;9219;50.396;8.546;2023-04-03T12:36:07;2.30;;;1.17;;
18188;SDS011;9219;50.396;8.546;2023-04-03T12:38:45;1.30;;;1.00;;
18188;SDS011;9219;50.396;8.546;2023-04-03T12:41:33;1.67;;;1.40;;
18188;SDS011;9219;50.396;8.546;2023-04-03T12:49:30;4.70;;;1.30;;
18188;SDS011;9219;50.396;8.546;2023-04-03T12:52:02;2.17;;;1.10;;
18188;SDS011;9219;50.396;8.546;2023-04-03T12:54:36;2.10;;;0.87;;
18188;SDS011;9219;50.396;8.546;2023-04-03T12:57:09;3.00;;;1.20;;
18188;SDS011;9219;50.396;8.546;2023-04-03T12:59:37;2.83;;;1.07;;
18188;SDS011;9219;50.396;8.546;2023-04-03T13:02:14;1.40;;;0.90;;
18188;SDS011;9219;50.396;8.546;2023-04-03T13:04:54;2.27;;;1.10;;
18188;SDS011;9219;50.396;8.546;2023-04-03T13:12:24;2.77;;;1.10;;
18188;SDS011;9219;50.396;8.546;2023-04-03T13:14:52;1.87;;;1.00;;
18188;SDS011;9219;50.396;8.546;2023-04-03T13:17:21;4.63;;;0.90;;
18188;SDS011;9219;50.396;8.546;2023-04-03T13:19:49;2.27;;;1.17;;
18188;SDS011;9219;50.396;8.546;2023-04-03T13:22:21;1.63;;;0.80;;
18188;SDS011;9219;50.396;8.546;2023-04-03T13:24:55;5.90;;;1.00;;
18188;SDS011;9219;50.396;8.546;2023-04-03T13:27:28;2.93;;;1.10;;
18188;SDS011;9219;50.396;8.546;2023-04-03T13:35:01;1.93;;;0.87;;
18188;SDS011;9219;50.396;8.546;2023-04-03T13:37:53;2.00;;;1.20;;
18188;SDS011;9219;50.396;8.546;2023-04-03T13:40:21;1.53;;;0.93;;
18188;SDS011;9219;50.396;8.546;2023-04-03T13:43:03;1.43;;;0.87;;
18188;SDS011;9219;50.396;8.546;2023-04-03T13:45:53;1.97;;;0.87;;
18188;SDS011;9219;50.396;8.546;2023-04-03T13:48:22;2.30;;;1.00;;
18188;SDS011;9219;50.396;8.546;2023-04-03T13:59:04;3.83;;;1.00;;
18188;SDS011;9219;50.396;8.546;2023-04-03T14:01:49;2.50;;;1.30;;
18188;SDS011;9219;50.396;8.546;2023-04-03T14:04:19;5.40;;;1.00;;
18188;SDS011;9219;50.396;8.546;2023-04-03T14:06:48;2.87;;;1.17;;
18188;SDS011;9219;50.396;8.546;2023-04-03T14:09:17;4.07;;;1.00;;
18188;SDS011;9219;50.396;8.546;2023-04-03T14:11:47;4.67;;;1.10;;
18188;SDS011;9219;50.396;8.546;2023-04-03T14:14:20;3.67;;;0.83;;
18188;SDS011;9219;50.396;8.546;2023-04-03T14:21:54;0.93;;;0.83;;
18188;SDS011;9219;50.396;8.546;2023-04-03T14:24:22;3.23;;;0.93;;
18188;SDS011;9219;50.396;8.546;2023-04-03T14:26:50;4.30;;;1.33;;
18188;SDS011;9219;50.396;8.546;2023-04-03T14:29:22;2.63;;;1.23;;
18188;SDS011;9219;50.396;8.546;2023-04-03T14:31:49;1.30;;;0.80;;
18188;SDS011;9219;50.396;8.546;2023-04-03T14:34:33;3.30;;;0.90;;
18188;SDS011;9219;50.396;8.546;2023-04-03T14:37:01;1.43;;;0.90;;
18188;SDS011;9219;50.396;8.546;2023-04-03T14:44:33;1.23;;;0.90;;
18188;SDS011;9219;50.396;8.546;2023-04-03T14:47:01;1.00;;;0.70;;
18188;SDS011;9219;50.396;8.546;2023-04-03T14:49:29;2.97;;;1.20;;
18188;SDS011;9219;50.396;8.546;2023-04-03T14:51:57;1.43;;;0.87;;
18188;SDS011;9219;50.396;8.546;2023-04-03T14:54:25;3.60;;;0.90;;
18188;SDS011;9219;50.396;8.546;2023-04-03T14:56:55;3.60;;;0.90;;
18188;SDS011;9219;50.396;8.546;2023-04-03T14:59:24;2.63;;;1.10;;
18188;SDS011;9219;50.396;8.546;2023-04-03T15:06:59;2.07;;;0.60;;
18188;SDS011;9219;50.396;8.546;2023-04-03T15:09:27;7.30;;;0.93;;
18188;SDS011;9219;50.396;8.546;2023-04-03T15:11:55;3.33;;;1.00;;
18188;SDS011;9219;50.396;8.546;2023-04-03T15:14:22;3.03;;;1.00;;
18188;SDS011;9219;50.396;8.546;2023-04-03T15:17:08;1.83;;;1.07;;
18188;SDS011;9219;50.396;8.546;2023-04-03T15:19:41;1.87;;;0.70;;
18188;SDS011;9219;50.396;8.546;2023-04-03T15:22:13;3.13;;;0.90;;
18188;SDS011;9219;50.396;8.546;2023-04-03T15:29:46;4.27;;;1.00;;
18188;SDS011;9219;50.396;8.546;2023-04-03T15:32:14;1.63;;;0.90;;
18188;SDS011;9219;50.396;8.546;2023-04-03T15:34:42;5.20;;;1.00;;
18188;SDS011;9219;50.396;8.546;2023-04-03T15:37:09;2.77;;;1.27;;
18188;SDS011;9219;50.396;8.546;2023-04-03T15:39:37;3.60;;;1.03;;
18188;SDS011;9219;50.396;8.546;2023-04-03T15:42:04;5.27;;;1.10;;
18188;SDS011;9219;50.396;8.546;2023-04-03T15:44:32;4.00;;;1.10;;
18188;SDS011;9219;50.396;8.546;2023-04-03T15:52:09;4.40;;;1.83;;
18188;SDS011;9219;50.396;8.546;2023-04-03T15:54:39;4.60;;;1.20;;
18188;SDS011;9219;50.396;8.546;2023-04-03T15:57:07;2.77;;;1.10;;
18188;SDS011;9219;50.396;8.546;2023-04-03T15:59:35;6.03;;;1.17;;
18188;SDS011;9219;50.396;8.546;2023-04-03T16:02:05;3.43;;;1.10;;
18188;SDS011;9219;50.396;8.546;2023-04-03T16:04:34;3.13;;;0.90;;
18188;SDS011;9219;50.396;8.546;2023-04-03T16:07:02;15.17;;;1.20;;
18188;SDS011;9219;50.396;8.546;2023-04-03T16:12:09;1.40;;;0.90;;
18188;SDS011;9219;50.396;8.546;2023-04-03T16:14:37;2.87;;;1.10;;
18188;SDS011;9219;50.396;8.546;2023-04-03T16:17:05;2.27;;;1.10;;
18188;SDS011;9219;50.396;8.546;2023-04-03T16:19:32;7.50;;;1.17;;
18188;SDS011;9219;50.396;8.546;2023-04-03T16:22:00;5.50;;;1.47;;
18188;SDS011;9219;50.396;8.546;2023-04-03T16:24:28;2.73;;;1.30;;
18188;SDS011;9219;50.396;8.546;2023-04-03T16:26:55;2.27;;;0.80;;
18188;SDS011;9219;50.396;8.546;2023-04-03T16:34:28;1.30;;;1.10;;
18188;SDS011;9219;50.396;8.546;2023-04-03T16:36:56;3.23;;;1.17;;
18188;SDS011;9219;50.396;8.546;2023-04-03T16:39:23;6.07;;;0.90;;
18188;SDS011;9219;50.396;8.546;2023-04-03T16:41:51;7.27;;;1.10;;
18188;SDS011;9219;50.396;8.546;2023-04-03T16:44:18;1.33;;;1.00;;
18188;SDS011;9219;50.396;8.546;2023-04-03T16:46:46;1.23;;;1.00;;
18188;SDS011;9219;50.396;8.546;2023-04-03T16:49:14;1.50;;;0.87;;
18188;SDS011;9219;50.396;8.546;2023-04-03T16:54:37;2.47;;;1.00;;
18188;SDS011;9219;50.396;8.546;2023-04-03T16:57:04;5.50;;;1.07;;
18188;SDS011;9219;50.396;8.546;2023-04-03T16:59:31;2.30;;;1.10;;
18188;SDS011;9219;50.396;8.546;2023-04-03T17:01:58;4.37;;;1.00;;
18188;SDS011;9219;50.396;8.546;2023-04-03T17:04:26;2.00;;;1.10;;
18188;SDS011;9219;50.396;8.546;2023-04-03T17:06:54;3.47;;;1.07;;
18188;SDS011;9219;50.396;8.546;2023-04-03T17:09:21;2.33;;;1.13;;
18188;SDS011;9219;50.396;8.546;2023-04-03T17:16:53;3.23;;;1.43;;
18188;SDS011;9219;50.396;8.546;2023-04-03T17:19:20;5.37;;;1.17;;
18188;SDS011;9219;50.396;8.546;2023-04-03T17:21:48;3.87;;;1.97;;
18188;SDS011;9219;50.396;8.546;2023-04-03T17:24:17;4.60;;;1.67;;
18188;SDS011;9219;50.396;8.546;2023-04-03T17:26:45;2.93;;;1.20;;
18188;SDS011;9219;50.396;8.546;2023-04-03T17:29:12;3.20;;;1.07;;
18188;SDS011;9219;50.396;8.546;2023-04-03T17:31:40;2.90;;;1.10;;
18188;SDS011;9219;50.396;8.546;2023-04-03T17:39:07;2.37;;;1.20;;
18188;SDS011;9219;50.396;8.546;2023-04-03T17:41:34;5.93;;;1.37;;
18188;SDS011;9219;50.396;8.546;2023-04-03T17:44:02;1.00;;;0.83;;
18188;SDS011;9219;50.396;8.546;2023-04-03T17:46:29;2.03;;;1.10;;
18188;SDS011;9219;50.396;8.546;2023-04-03T17:49:00;3.60;;;0.90;;
18188;SDS011;9219;50.396;8.546;2023-04-03T17:51:28;2.40;;;0.90;;
18188;SDS011;9219;50.396;8.546;2023-04-03T17:53:57;2.23;;;1.10;;
18188;SDS011;9219;50.396;8.546;2023-04-03T17:59:19;3.53;;;1.33;;
18188;SDS011;9219;50.396;8.546;2023-04-03T18:01:47;2.60;;;1.50;;
18188;SDS011;9219;50.396;8.546;2023-04-03T18:04:16;6.87;;;1.30;;
18188;SDS011;9219;50.396;8.546;2023-04-03T18:06:45;2.70;;;1.40;;
18188;SDS011;9219;50.396;8.546;2023-04-03T18:09:15;5.47;;;1.00;;
18188;SDS011;9219;50.396;8.546;2023-04-03T18:11:45;1.37;;;0.97;;
18188;SDS011;9219;50.396;8.546;2023-04-03T18:14:14;2.57;;;1.33;;
18188;SDS011;9219;50.396;8.546;2023-04-03T18:21:49;4.50;;;1.20;;
18188;SDS011;9219;50.396;8.546;2023-04-03T18:24:17;1.73;;;1.10;;
18188;SDS011;9219;50.396;8.546;2023-04-03T18:26:47;6.47;;;1.43;;
18188;SDS011;9219;50.396;8.546;2023-04-03T18:29:16;3.43;;;1.00;;
18188;SDS011;9219;50.396;8.546;2023-04-03T18:31:45;6.63;;;0.97;;
18188;SDS011;9219;50.396;8.546;2023-04-03T18:34:18;2.37;;;1.00;;
18188;SDS011;9219;50.396;8.546;2023-04-03T18:36:45;3.97;;;1.17;;
18188;SDS011;9219;50.396;8.546;2023-04-03T18:42:09;8.00;;;2.13;;
18188;SDS011;9219;50.396;8.546;2023-04-03T18:44:39;2.50;;;1.37;;
18188;SDS011;9219;50.396;8.546;2023-04-03T18:47:10;1.27;;;1.07;;
18188;SDS011;9219;50.396;8.546;2023-04-03T18:49:38;3.90;;;1.30;;
18188;SDS011;9219;50.396;8.546;2023-04-03T18:52:07;1.37;;;1.00;;
18188;SDS011;9219;50.396;8.546;2023-04-03T18:54:35;7.47;;;1.63;;
18188;SDS011;9219;50.396;8.546;2023-04-03T18:57:03;2.73;;;1.40;;
18188;SDS011;9219;50.396;8.546;2023-04-03T19:04:34;2.40;;;0.97;;
18188;SDS011;9219;50.396;8.546;2023-04-03T19:07:02;6.33;;;1.13;;
18188;SDS011;9219;50.396;8.546;2023-04-03T19:09:31;2.60;;;1.13;;
18188;SDS011;9219;50.396;8.546;2023-04-03T19:11:59;3.27;;;1.37;;
18188;SDS011;9219;50.396;8.546;2023-04-03T19:14:28;4.67;;;1.63;;
18188;SDS011;9219;50.396;8.546;2023-04-03T19:16:55;2.00;;;1.00;;
18188;SDS011;9219;50.396;8.546;2023-04-03T19:19:23;2.60;;;1.20;;
18188;SDS011;9219;50.396;8.546;2023-04-03T19:26:55;4.77;;;1.20;;
18188;SDS011;9219;50.396;8.546;2023-04-03T19:29:24;3.10;;;1.03;;
18188;SDS011;9219;50.396;8.546;2023-04-03T19:31:51;3.43;;;1.23;;
18188;SDS011;9219;50.396;8.546;2023-04-03T19:34:19;3.30;;;1.23;;
18188;SDS011;9219;50.396;8.546;2023-04-03T19:36:46;3.47;;;0.83;;
18188;SDS011;9219;50.396;8.546;2023-04-03T19:39:16;1.27;;;0.90;;
18188;SDS011;9219;50.396;8.546;2023-04-03T19:41:44;2.97;;;1.50;;
18188;SDS011;9219;50.396;8.546;2023-04-03T19:48:38;3.23;;;1.30;;
18188;SDS011;9219;50.396;8.546;2023-04-03T19:51:06;3.90;;;1.50;;